Wednesday, August 15, 2018, 3:41 AM CDT
Back to Local

KVPZ, Valparaiso Porter Co Muni

Location: Valparaiso, IN, United States Lat: 41.45
Local Time: 3:41 AM CDT ( 8:41 GMT) Lon: -87
Time Zone: US/Central Elev: 770 ft

Show me the last for .
Show Decoded

2018-08-15 02:56 METAR KVPZ 150756Z AUTO 00000KT CLR 20/17 A2997 RMK AO2 SLP143 T02000172 $ =
2018-08-15 01:56 METAR KVPZ 150656Z AUTO 00000KT CLR 22/17 A2996 RMK AO2 SLP138 T02220172 $ =
2018-08-15 00:56 METAR KVPZ 150556Z AUTO 18003KT CLR 21/18 A2997 RMK AO2 SLP142 T02110178 10278
                 20211 403220172 58006 $ =
2018-08-14 23:56 METAR KVPZ 150456Z AUTO 20003KT CLR 22/18 A2998 RMK AO2 SLP144 T02220178 $ =
2018-08-14 22:56 METAR KVPZ 150356Z AUTO 00000KT CLR 22/18 A2999 RMK AO2 SLP149 T02170183 $ =
2018-08-14 21:56 METAR KVPZ 150256Z AUTO 00000KT CLR 24/18 A2999 RMK AO2 SLP149 T02390178 51007 $
                 =
2018-08-14 20:56 METAR KVPZ 150156Z AUTO 22003KT CLR 26/18 A2998 RMK AO2 SLP147 T02560178 $ =
2018-08-14 19:56 METAR KVPZ 150056Z AUTO 20004KT CLR 27/17 A2998 RMK AO2 SLP146 T02670172 $ =
2018-08-14 18:56 METAR KVPZ 142356Z AUTO 19004KT CLR 28/17 A2997 RMK AO2 SLP143 T02780172 10322
                 20278 56005 $ =
2018-08-14 17:56 METAR KVPZ 142256Z AUTO 20007KT CLR 29/17 A2998 RMK AO2 SLP146 T02940167 $ =
2018-08-14 16:56 METAR KVPZ 142156Z AUTO 15004KT BKN060 31/17 A2998 RMK AO2 SLP145 T03060167 $ =
2018-08-14 15:56 METAR KVPZ 142056Z AUTO 21004KT CLR 30/16 A2999 RMK AO2 SLP149 T03000161 58009 $
                 =
2018-08-14 14:56 METAR KVPZ 141956Z AUTO 23007KT CLR 31/14 A2999 RMK AO2 SLP151 T03110144 $ =
2018-08-14 13:56 METAR KVPZ 141856Z AUTO 18005KT FEW055 31/15 A3001 RMK AO2 SLP155 T03110150 $ =
2018-08-14 12:56 METAR KVPZ 141756Z AUTO 21005KT CLR 31/16 A3001 RMK AO2 SLP157 T03060156 10306
                 20200 58006 $ =
2018-08-14 11:56 METAR KVPZ 141656Z AUTO 25006KT CLR 31/17 A3002 RMK AO2 SLP161 T03060167 $ =
2018-08-14 10:56 METAR KVPZ 141556Z AUTO 28006KT CLR 29/16 A3003 RMK AO2 SLP162 T02940161 $ =
2018-08-14 09:56 METAR KVPZ 141456Z AUTO 27005KT CLR 27/18 A3003 RMK AO2 SLP164 T02720178 51003 $
                 =
2018-08-14 08:56 METAR KVPZ 141356Z AUTO 27003KT CLR 25/18 A3003 RMK AO2 SLP164 T02500178 $ =
2018-08-14 07:56 METAR KVPZ 141256Z AUTO 28005KT CLR 22/17 A3003 RMK AO2 SLP162 T02170172 $ =
2018-08-14 06:56 METAR KVPZ 141156Z AUTO 22004KT CLR 19/17 A3002 RMK AO2 SLP161 T01940167 10206
                 20172 53005 $ =
2018-08-14 05:56 METAR KVPZ 141056Z AUTO 22003KT FEW055 19/17 A3002 RMK AO2 SLP160 T01890167 $ =
2018-08-14 04:56 METAR KVPZ 140956Z AUTO 00000KT CLR 18/16 A3001 RMK AO2 SLP157 T01780156 $ =
2018-08-14 03:56 METAR KVPZ 140856Z AUTO 00000KT FEW004 18/16 A3001 RMK AO2 SLP156 T01780156
                 56009 $ =
2018-08-14 03:47 METAR KVPZ 140847Z AUTO 07003KT FEW004 18/16 A3000 RMK AO2 T01780156 $ =

Support USWX by starting your Amazon purchase here.